sensor_id;sensor_type;location;lat;lon;timestamp;P1;durP1;ratioP1;P2;durP2;ratioP2
77298;SDS011;66361;52.034;20.656;2023-07-16T04:55:09;7.53;;;6.22;;
77298;SDS011;66361;52.034;20.656;2023-07-16T04:59:13;6.70;;;5.88;;
77298;SDS011;66361;52.034;20.656;2023-07-16T05:03:16;6.55;;;5.95;;
77298;SDS011;66361;52.034;20.656;2023-07-16T05:07:20;7.40;;;6.43;;
77298;SDS011;66361;52.034;20.656;2023-07-16T05:11:23;6.15;;;5.53;;
77298;SDS011;66361;52.034;20.656;2023-07-16T05:15:27;6.18;;;5.20;;
77298;SDS011;66361;52.034;20.656;2023-07-16T05:19:30;6.13;;;5.53;;
77298;SDS011;66361;52.034;20.656;2023-07-16T05:23:34;6.90;;;5.70;;
77298;SDS011;66361;52.034;20.656;2023-07-16T05:27:38;5.93;;;5.32;;
77298;SDS011;66361;52.034;20.656;2023-07-16T05:31:42;7.45;;;5.95;;
77298;SDS011;66361;52.034;20.656;2023-07-16T05:35:48;5.85;;;5.25;;
77298;SDS011;66361;52.034;20.656;2023-07-16T05:39:52;5.90;;;5.30;;
77298;SDS011;66361;52.034;20.656;2023-07-16T05:43:55;7.45;;;5.93;;
77298;SDS011;66361;52.034;20.656;2023-07-16T05:47:59;6.20;;;5.60;;
77298;SDS011;66361;52.034;20.656;2023-07-16T05:52:03;6.32;;;5.00;;
77298;SDS011;66361;52.034;20.656;2023-07-16T05:56:08;6.20;;;5.47;;
77298;SDS011;66361;52.034;20.656;2023-07-16T06:00:12;7.15;;;5.20;;
77298;SDS011;66361;52.034;20.656;2023-07-16T06:04:16;5.50;;;5.00;;
77298;SDS011;66361;52.034;20.656;2023-07-16T06:08:19;6.00;;;5.13;;
77298;SDS011;66361;52.034;20.656;2023-07-16T06:12:24;5.53;;;5.03;;
77298;SDS011;66361;52.034;20.656;2023-07-16T06:16:27;5.70;;;5.20;;
77298;SDS011;66361;52.034;20.656;2023-07-16T06:20:31;7.60;;;4.32;;
77298;SDS011;66361;52.034;20.656;2023-07-16T06:24:35;5.50;;;4.68;;
77298;SDS011;66361;52.034;20.656;2023-07-16T06:28:40;4.97;;;4.47;;
77298;SDS011;66361;52.034;20.656;2023-07-16T06:32:43;6.25;;;4.95;;
77298;SDS011;66361;52.034;20.656;2023-07-16T06:36:47;5.30;;;4.88;;
77298;SDS011;66361;52.034;20.656;2023-07-16T06:40:50;6.30;;;4.95;;
77298;SDS011;66361;52.034;20.656;2023-07-16T06:44:55;5.70;;;4.97;;
77298;SDS011;66361;52.034;20.656;2023-07-16T06:48:59;5.57;;;5.07;;
77298;SDS011;66361;52.034;20.656;2023-07-16T06:53:02;5.55;;;4.35;;
77298;SDS011;66361;52.034;20.656;2023-07-16T06:57:05;5.60;;;4.63;;
77298;SDS011;66361;52.034;20.656;2023-07-16T07:01:10;5.90;;;4.50;;
77298;SDS011;66361;52.034;20.656;2023-07-16T07:05:14;6.35;;;4.75;;
77298;SDS011;66361;52.034;20.656;2023-07-16T07:09:18;5.90;;;4.47;;
77298;SDS011;66361;52.034;20.656;2023-07-16T07:13:22;5.07;;;4.00;;
77298;SDS011;66361;52.034;20.656;2023-07-16T07:17:28;4.40;;;4.00;;
77298;SDS011;66361;52.034;20.656;2023-07-16T07:21:31;4.70;;;4.25;;
77298;SDS011;66361;52.034;20.656;2023-07-16T07:25:33;4.57;;;4.18;;
77298;SDS011;66361;52.034;20.656;2023-07-16T07:29:37;4.43;;;4.03;;
77298;SDS011;66361;52.034;20.656;2023-07-16T07:33:42;4.85;;;4.35;;
77298;SDS011;66361;52.034;20.656;2023-07-16T07:37:46;4.65;;;4.25;;
77298;SDS011;66361;52.034;20.656;2023-07-16T07:41:49;5.32;;;4.50;;
77298;SDS011;66361;52.034;20.656;2023-07-16T07:45:52;5.55;;;5.00;;
77298;SDS011;66361;52.034;20.656;2023-07-16T07:49:57;5.80;;;4.75;;
77298;SDS011;66361;52.034;20.656;2023-07-16T07:54:01;8.40;;;4.90;;
77298;SDS011;66361;52.034;20.656;2023-07-16T07:58:04;5.28;;;4.65;;
77298;SDS011;66361;52.034;20.656;2023-07-16T08:02:07;6.75;;;5.28;;
77298;SDS011;66361;52.034;20.656;2023-07-16T08:06:12;6.28;;;5.00;;
77298;SDS011;66361;52.034;20.656;2023-07-16T08:10:15;6.38;;;5.13;;
77298;SDS011;66361;52.034;20.656;2023-07-16T08:14:18;6.00;;;5.40;;
77298;SDS011;66361;52.034;20.656;2023-07-16T08:18:22;5.53;;;5.03;;
77298;SDS011;66361;52.034;20.656;2023-07-16T08:22:26;6.20;;;5.65;;
77298;SDS011;66361;52.034;20.656;2023-07-16T08:26:30;5.95;;;5.35;;
77298;SDS011;66361;52.034;20.656;2023-07-16T08:30:32;7.47;;;5.40;;
77298;SDS011;66361;52.034;20.656;2023-07-16T08:34:36;5.30;;;4.80;;
77298;SDS011;66361;52.034;20.656;2023-07-16T08:38:40;6.05;;;5.47;;
77298;SDS011;66361;52.034;20.656;2023-07-16T08:42:45;5.28;;;4.75;;
77298;SDS011;66361;52.034;20.656;2023-07-16T08:46:49;5.82;;;5.05;;
77298;SDS011;66361;52.034;20.656;2023-07-16T08:50:52;6.43;;;5.88;;
77298;SDS011;66361;52.034;20.656;2023-07-16T08:54:57;6.22;;;5.15;;
77298;SDS011;66361;52.034;20.656;2023-07-16T08:59:00;5.70;;;4.97;;
77298;SDS011;66361;52.034;20.656;2023-07-16T09:03:03;5.68;;;4.95;;
77298;SDS011;66361;52.034;20.656;2023-07-16T09:07:07;6.38;;;5.22;;
77298;SDS011;66361;52.034;20.656;2023-07-16T09:11:12;5.72;;;5.22;;
77298;SDS011;66361;52.034;20.656;2023-07-16T09:15:17;6.50;;;5.50;;
77298;SDS011;66361;52.034;20.656;2023-07-16T09:19:21;6.22;;;5.63;;
77298;SDS011;66361;52.034;20.656;2023-07-16T09:23:25;5.90;;;5.40;;
77298;SDS011;66361;52.034;20.656;2023-07-16T09:27:30;6.57;;;5.72;;
77298;SDS011;66361;52.034;20.656;2023-07-16T09:31:33;6.78;;;6.07;;
77298;SDS011;66361;52.034;20.656;2023-07-16T09:35:37;7.13;;;6.43;;
77298;SDS011;66361;52.034;20.656;2023-07-16T09:39:40;8.05;;;7.03;;
77298;SDS011;66361;52.034;20.656;2023-07-16T09:43:46;7.38;;;6.68;;
77298;SDS011;66361;52.034;20.656;2023-07-16T09:47:49;10.07;;;6.55;;
77298;SDS011;66361;52.034;20.656;2023-07-16T09:51:53;8.43;;;7.10;;
77298;SDS011;66361;52.034;20.656;2023-07-16T09:55:59;11.02;;;6.85;;
77298;SDS011;66361;52.034;20.656;2023-07-16T10:00:07;6.78;;;6.07;;
77298;SDS011;66361;52.034;20.656;2023-07-16T10:04:15;7.53;;;6.78;;
77298;SDS011;66361;52.034;20.656;2023-07-16T10:08:25;7.63;;;6.82;;
77298;SDS011;66361;52.034;20.656;2023-07-16T10:12:34;6.93;;;6.28;;
77298;SDS011;66361;52.034;20.656;2023-07-16T10:16:39;6.95;;;6.40;;
77298;SDS011;66361;52.034;20.656;2023-07-16T10:20:43;7.28;;;5.63;;
77298;SDS011;66361;52.034;20.656;2023-07-16T10:24:53;6.68;;;6.07;;
77298;SDS011;66361;52.034;20.656;2023-07-16T10:28:56;6.88;;;6.22;;
77298;SDS011;66361;52.034;20.656;2023-07-16T10:33:03;6.53;;;5.90;;
77298;SDS011;66361;52.034;20.656;2023-07-16T10:37:14;6.68;;;5.97;;
77298;SDS011;66361;52.034;20.656;2023-07-16T10:41:17;7.63;;;5.75;;
77298;SDS011;66361;52.034;20.656;2023-07-16T10:45:20;6.45;;;5.85;;
77298;SDS011;66361;52.034;20.656;2023-07-16T10:49:28;7.70;;;6.20;;
77298;SDS011;66361;52.034;20.656;2023-07-16T10:53:32;7.78;;;6.97;;
77298;SDS011;66361;52.034;20.656;2023-07-16T10:57:35;7.53;;;6.82;;
77298;SDS011;66361;52.034;20.656;2023-07-16T11:01:41;7.30;;;6.70;;
77298;SDS011;66361;52.034;20.656;2023-07-16T11:05:46;9.68;;;6.82;;
77298;SDS011;66361;52.034;20.656;2023-07-16T11:09:57;9.27;;;7.00;;
77298;SDS011;66361;52.034;20.656;2023-07-16T11:14:05;6.88;;;6.20;;
77298;SDS011;66361;52.034;20.656;2023-07-16T11:18:09;6.63;;;5.97;;
77298;SDS011;66361;52.034;20.656;2023-07-16T11:22:13;6.53;;;5.93;;
77298;SDS011;66361;52.034;20.656;2023-07-16T11:26:18;10.07;;;5.97;;
77298;SDS011;66361;52.034;20.656;2023-07-16T11:30:22;7.13;;;6.45;;
77298;SDS011;66361;52.034;20.656;2023-07-16T11:34:26;7.93;;;6.30;;
77298;SDS011;66361;52.034;20.656;2023-07-16T11:38:30;7.68;;;5.88;;
77298;SDS011;66361;52.034;20.656;2023-07-16T11:42:39;6.32;;;5.68;;
77298;SDS011;66361;52.034;20.656;2023-07-16T11:46:46;5.88;;;4.90;;
77298;SDS011;66361;52.034;20.656;2023-07-16T11:50:49;5.90;;;5.30;;
77298;SDS011;66361;52.034;20.656;2023-07-16T11:54:54;5.82;;;5.32;;
77298;SDS011;66361;52.034;20.656;2023-07-16T11:59:01;8.43;;;5.68;;
77298;SDS011;66361;52.034;20.656;2023-07-16T12:03:04;6.00;;;5.32;;
77298;SDS011;66361;52.034;20.656;2023-07-16T12:07:07;5.93;;;5.32;;
77298;SDS011;66361;52.034;20.656;2023-07-16T12:11:12;8.73;;;5.25;;
77298;SDS011;66361;52.034;20.656;2023-07-16T12:15:15;6.70;;;5.30;;
77298;SDS011;66361;52.034;20.656;2023-07-16T12:19:21;5.38;;;4.82;;
77298;SDS011;66361;52.034;20.656;2023-07-16T12:23:24;4.88;;;4.47;;
77298;SDS011;66361;52.034;20.656;2023-07-16T12:27:29;5.82;;;3.90;;
77298;SDS011;66361;52.034;20.656;2023-07-16T12:31:31;4.95;;;4.55;;
77298;SDS011;66361;52.034;20.656;2023-07-16T12:35:37;4.90;;;4.30;;
77298;SDS011;66361;52.034;20.656;2023-07-16T12:39:40;4.53;;;3.80;;
77298;SDS011;66361;52.034;20.656;2023-07-16T12:43:45;4.65;;;4.10;;
77298;SDS011;66361;52.034;20.656;2023-07-16T12:47:49;4.63;;;4.22;;
77298;SDS011;66361;52.034;20.656;2023-07-16T12:51:52;4.00;;;3.70;;
77298;SDS011;66361;52.034;20.656;2023-07-16T12:55:55;4.10;;;3.55;;
77298;SDS011;66361;52.034;20.656;2023-07-16T13:00:00;6.25;;;3.83;;
77298;SDS011;66361;52.034;20.656;2023-07-16T13:04:06;3.50;;;3.20;;
77298;SDS011;66361;52.034;20.656;2023-07-16T13:08:09;4.30;;;3.80;;
77298;SDS011;66361;52.034;20.656;2023-07-16T13:12:12;4.18;;;3.78;;
77298;SDS011;66361;52.034;20.656;2023-07-16T13:16:17;4.20;;;3.78;;
77298;SDS011;66361;52.034;20.656;2023-07-16T13:20:20;4.28;;;3.78;;
77298;SDS011;66361;52.034;20.656;2023-07-16T13:24:24;5.88;;;4.22;;
77298;SDS011;66361;52.034;20.656;2023-07-16T13:28:28;4.57;;;4.18;;
77298;SDS011;66361;52.034;20.656;2023-07-16T13:32:32;5.22;;;3.80;;
77298;SDS011;66361;52.034;20.656;2023-07-16T13:36:35;6.30;;;3.75;;
77298;SDS011;66361;52.034;20.656;2023-07-16T13:40:39;4.85;;;3.67;;
77298;SDS011;66361;52.034;20.656;2023-07-16T13:44:42;4.75;;;3.70;;
77298;SDS011;66361;52.034;20.656;2023-07-16T13:48:47;4.78;;;3.88;;
77298;SDS011;66361;52.034;20.656;2023-07-16T13:52:56;4.47;;;3.33;;
77298;SDS011;66361;52.034;20.656;2023-07-16T13:57:03;4.47;;;4.07;;
77298;SDS011;66361;52.034;20.656;2023-07-16T14:01:06;4.53;;;3.90;;
77298;SDS011;66361;52.034;20.656;2023-07-16T14:05:10;3.95;;;3.55;;
77298;SDS011;66361;52.034;20.656;2023-07-16T14:09:13;6.75;;;6.07;;
77298;SDS011;66361;52.034;20.656;2023-07-16T14:13:16;4.35;;;3.95;;
77298;SDS011;66361;52.034;20.656;2023-07-16T14:17:22;4.32;;;3.60;;
77298;SDS011;66361;52.034;20.656;2023-07-16T14:21:27;6.35;;;5.78;;
77298;SDS011;66361;52.034;20.656;2023-07-16T14:25:31;3.83;;;3.53;;
77298;SDS011;66361;52.034;20.656;2023-07-16T14:29:35;3.80;;;3.50;;
77298;SDS011;66361;52.034;20.656;2023-07-16T14:33:51;5.20;;;4.80;;
77298;SDS011;66361;52.034;20.656;2023-07-16T14:37:55;4.57;;;3.22;;
77298;SDS011;66361;52.034;20.656;2023-07-16T14:42:00;3.90;;;3.35;;
77298;SDS011;66361;52.034;20.656;2023-07-16T14:46:04;7.72;;;3.45;;
77298;SDS011;66361;52.034;20.656;2023-07-16T14:50:08;3.05;;;2.60;;
77298;SDS011;66361;52.034;20.656;2023-07-16T14:54:13;3.13;;;2.83;;
77298;SDS011;66361;52.034;20.656;2023-07-16T14:58:17;5.30;;;4.72;;
77298;SDS011;66361;52.034;20.656;2023-07-16T15:02:21;8.63;;;2.72;;
77298;SDS011;66361;52.034;20.656;2023-07-16T15:06:25;3.47;;;3.00;;
77298;SDS011;66361;52.034;20.656;2023-07-16T15:10:29;4.18;;;3.65;;
77298;SDS011;66361;52.034;20.656;2023-07-16T15:14:33;3.88;;;2.95;;
77298;SDS011;66361;52.034;20.656;2023-07-16T15:18:37;3.88;;;2.80;;
77298;SDS011;66361;52.034;20.656;2023-07-16T15:22:41;3.85;;;3.08;;
77298;SDS011;66361;52.034;20.656;2023-07-16T15:26:46;4.13;;;2.53;;
77298;SDS011;66361;52.034;20.656;2023-07-16T15:30:48;3.40;;;2.55;;
77298;SDS011;66361;52.034;20.656;2023-07-16T15:34:52;3.38;;;2.70;;
77298;SDS011;66361;52.034;20.656;2023-07-16T15:38:56;2.75;;;2.42;;
77298;SDS011;66361;52.034;20.656;2023-07-16T15:43:00;2.63;;;2.40;;
77298;SDS011;66361;52.034;20.656;2023-07-16T15:47:04;2.85;;;2.58;;
77298;SDS011;66361;52.034;20.656;2023-07-16T15:51:07;3.75;;;2.80;;
77298;SDS011;66361;52.034;20.656;2023-07-16T15:55:11;4.85;;;3.00;;
77298;SDS011;66361;52.034;20.656;2023-07-16T15:59:15;2.67;;;2.47;;
77298;SDS011;66361;52.034;20.656;2023-07-16T16:03:19;4.07;;;2.60;;
77298;SDS011;66361;52.034;20.656;2023-07-16T16:07:22;3.08;;;2.40;;
77298;SDS011;66361;52.034;20.656;2023-07-16T16:11:25;4.60;;;2.60;;
77298;SDS011;66361;52.034;20.656;2023-07-16T16:15:30;4.53;;;3.10;;
77298;SDS011;66361;52.034;20.656;2023-07-16T16:19:34;3.95;;;2.75;;
77298;SDS011;66361;52.034;20.656;2023-07-16T16:23:38;5.95;;;2.95;;
77298;SDS011;66361;52.034;20.656;2023-07-16T16:27:41;4.68;;;2.60;;
77298;SDS011;66361;52.034;20.656;2023-07-16T16:31:50;3.50;;;2.72;;
77298;SDS011;66361;52.034;20.656;2023-07-16T16:35:55;3.13;;;2.67;;
77298;SDS011;66361;52.034;20.656;2023-07-16T16:39:58;3.97;;;2.50;;
77298;SDS011;66361;52.034;20.656;2023-07-16T16:48:10;4.03;;;2.78;;
77298;SDS011;66361;52.034;20.656;2023-07-16T16:52:14;3.90;;;2.90;;
77298;SDS011;66361;52.034;20.656;2023-07-16T16:56:17;3.00;;;2.70;;
77298;SDS011;66361;52.034;20.656;2023-07-16T17:00:21;3.28;;;2.90;;
77298;SDS011;66361;52.034;20.656;2023-07-16T17:04:26;3.00;;;2.65;;
77298;SDS011;66361;52.034;20.656;2023-07-16T17:08:30;3.03;;;2.72;;
77298;SDS011;66361;52.034;20.656;2023-07-16T17:12:33;3.67;;;3.00;;
77298;SDS011;66361;52.034;20.656;2023-07-16T17:16:42;3.78;;;2.78;;
77298;SDS011;66361;52.034;20.656;2023-07-16T17:20:47;4.18;;;2.67;;
77298;SDS011;66361;52.034;20.656;2023-07-16T17:24:50;3.80;;;2.95;;
77298;SDS011;66361;52.034;20.656;2023-07-16T17:28:56;4.53;;;3.05;;
77298;SDS011;66361;52.034;20.656;2023-07-16T17:32:59;3.28;;;2.97;;
77298;SDS011;66361;52.034;20.656;2023-07-16T17:37:04;3.30;;;2.92;;
77298;SDS011;66361;52.034;20.656;2023-07-16T17:41:07;3.10;;;2.80;;
77298;SDS011;66361;52.034;20.656;2023-07-16T17:45:10;7.40;;;3.20;;
77298;SDS011;66361;52.034;20.656;2023-07-16T17:49:16;3.75;;;3.10;;
77298;SDS011;66361;52.034;20.656;2023-07-16T17:53:20;2.83;;;2.63;;
77298;SDS011;66361;52.034;20.656;2023-07-16T18:01:29;3.90;;;2.85;;
77298;SDS011;66361;52.034;20.656;2023-07-16T18:05:33;3.72;;;2.70;;
77298;SDS011;66361;52.034;20.656;2023-07-16T18:09:37;2.95;;;2.70;;
77298;SDS011;66361;52.034;20.656;2023-07-16T18:13:40;3.05;;;2.70;;
77298;SDS011;66361;52.034;20.656;2023-07-16T18:17:43;3.35;;;2.70;;
77298;SDS011;66361;52.034;20.656;2023-07-16T18:21:47;2.83;;;2.60;;
77298;SDS011;66361;52.034;20.656;2023-07-16T18:26:15;4.20;;;2.83;;
77298;SDS011;66361;52.034;20.656;2023-07-16T18:30:18;5.13;;;2.63;;
77298;SDS011;66361;52.034;20.656;2023-07-16T18:34:21;3.00;;;2.70;;
77298;SDS011;66361;52.034;20.656;2023-07-16T18:38:24;3.75;;;2.67;;
77298;SDS011;66361;52.034;20.656;2023-07-16T18:42:29;6.00;;;3.00;;
77298;SDS011;66361;52.034;20.656;2023-07-16T18:46:33;3.53;;;2.88;;
77298;SDS011;66361;52.034;20.656;2023-07-16T18:50:36;4.70;;;2.60;;
77298;SDS011;66361;52.034;20.656;2023-07-16T18:54:40;3.63;;;2.88;;
77298;SDS011;66361;52.034;20.656;2023-07-16T18:58:44;3.55;;;2.85;;
77298;SDS011;66361;52.034;20.656;2023-07-16T19:02:47;3.45;;;2.83;;
77298;SDS011;66361;52.034;20.656;2023-07-16T19:06:50;3.30;;;2.90;;
77298;SDS011;66361;52.034;20.656;2023-07-16T19:10:54;4.07;;;2.72;;
77298;SDS011;66361;52.034;20.656;2023-07-16T19:15:00;7.95;;;3.13;;
77298;SDS011;66361;52.034;20.656;2023-07-16T19:19:04;4.65;;;3.08;;
77298;SDS011;66361;52.034;20.656;2023-07-16T19:23:07;7.35;;;3.10;;
77298;SDS011;66361;52.034;20.656;2023-07-16T19:27:10;4.93;;;3.40;;
77298;SDS011;66361;52.034;20.656;2023-07-16T19:31:15;6.05;;;3.15;;
77298;SDS011;66361;52.034;20.656;2023-07-16T19:35:18;13.23;;;4.28;;
77298;SDS011;66361;52.034;20.656;2023-07-16T19:39:21;6.93;;;3.63;;
77298;SDS011;66361;52.034;20.656;2023-07-16T19:43:24;5.07;;;3.45;;
77298;SDS011;66361;52.034;20.656;2023-07-16T19:47:29;5.47;;;3.85;;
77298;SDS011;66361;52.034;20.656;2023-07-16T19:51:33;4.88;;;3.15;;
77298;SDS011;66361;52.034;20.656;2023-07-16T19:55:36;6.47;;;3.58;;
77298;SDS011;66361;52.034;20.656;2023-07-16T19:59:39;4.93;;;3.35;;
77298;SDS011;66361;52.034;20.656;2023-07-16T20:03:43;4.30;;;3.90;;
77298;SDS011;66361;52.034;20.656;2023-07-16T20:07:46;4.80;;;3.83;;
77298;SDS011;66361;52.034;20.656;2023-07-16T20:11:49;6.10;;;3.67;;
77298;SDS011;66361;52.034;20.656;2023-07-16T20:15:52;3.70;;;3.40;;
77298;SDS011;66361;52.034;20.656;2023-07-16T20:19:57;8.00;;;4.13;;
77298;SDS011;66361;52.034;20.656;2023-07-16T20:24:00;3.97;;;3.42;;
77298;SDS011;66361;52.034;20.656;2023-07-16T20:28:05;5.28;;;3.40;;
77298;SDS011;66361;52.034;20.656;2023-07-16T20:32:10;4.25;;;3.85;;
77298;SDS011;66361;52.034;20.656;2023-07-16T20:36:14;4.10;;;3.70;;
77298;SDS011;66361;52.034;20.656;2023-07-16T20:40:19;4.18;;;3.50;;
77298;SDS011;66361;52.034;20.656;2023-07-16T20:44:23;4.45;;;3.25;;
77298;SDS011;66361;52.034;20.656;2023-07-16T20:48:27;4.03;;;3.63;;
77298;SDS011;66361;52.034;20.656;2023-07-16T20:52:32;4.38;;;3.67;;
77298;SDS011;66361;52.034;20.656;2023-07-16T20:56:35;5.07;;;3.60;;
77298;SDS011;66361;52.034;20.656;2023-07-16T21:00:38;4.47;;;3.40;;
77298;SDS011;66361;52.034;20.656;2023-07-16T21:04:45;3.83;;;3.38;;
77298;SDS011;66361;52.034;20.656;2023-07-16T21:08:50;3.90;;;3.45;;
77298;SDS011;66361;52.034;20.656;2023-07-16T21:12:54;4.85;;;3.97;;
77298;SDS011;66361;52.034;20.656;2023-07-16T21:16:58;5.35;;;3.55;;
77298;SDS011;66361;52.034;20.656;2023-07-16T21:21:02;4.15;;;3.65;;
77298;SDS011;66361;52.034;20.656;2023-07-16T21:25:07;4.13;;;3.65;;
77298;SDS011;66361;52.034;20.656;2023-07-16T21:29:11;3.80;;;3.50;;
77298;SDS011;66361;52.034;20.656;2023-07-16T21:33:14;4.15;;;3.63;;
77298;SDS011;66361;52.034;20.656;2023-07-16T21:37:18;4.30;;;3.90;;
77298;SDS011;66361;52.034;20.656;2023-07-16T21:41:22;4.40;;;4.00;;
77298;SDS011;66361;52.034;20.656;2023-07-16T21:45:28;5.38;;;4.28;;
77298;SDS011;66361;52.034;20.656;2023-07-16T21:49:32;4.57;;;4.18;;
77298;SDS011;66361;52.034;20.656;2023-07-16T21:53:36;4.90;;;4.00;;
77298;SDS011;66361;52.034;20.656;2023-07-16T21:57:41;4.35;;;3.95;;
77298;SDS011;66361;52.034;20.656;2023-07-16T22:01:44;6.97;;;4.57;;
77298;SDS011;66361;52.034;20.656;2023-07-16T22:05:48;5.20;;;4.30;;
77298;SDS011;66361;52.034;20.656;2023-07-16T22:09:51;4.82;;;4.43;;
77298;SDS011;66361;52.034;20.656;2023-07-16T22:13:56;4.75;;;4.32;;
77298;SDS011;66361;52.034;20.656;2023-07-16T22:17:59;5.13;;;4.53;;
77298;SDS011;66361;52.034;20.656;2023-07-16T22:22:02;4.90;;;4.40;;
77298;SDS011;66361;52.034;20.656;2023-07-16T22:26:06;4.28;;;3.85;;
77298;SDS011;66361;52.034;20.656;2023-07-16T22:30:12;4.90;;;4.40;;
77298;SDS011;66361;52.034;20.656;2023-07-16T22:34:16;5.90;;;4.18;;
77298;SDS011;66361;52.034;20.656;2023-07-16T22:38:19;6.57;;;4.95;;
77298;SDS011;66361;52.034;20.656;2023-07-16T22:42:21;6.97;;;4.57;;
77298;SDS011;66361;52.034;20.656;2023-07-16T22:46:27;6.43;;;4.20;;
77298;SDS011;66361;52.034;20.656;2023-07-16T22:50:31;5.80;;;4.68;;
77298;SDS011;66361;52.034;20.656;2023-07-16T22:54:35;5.40;;;4.43;;
77298;SDS011;66361;52.034;20.656;2023-07-16T22:58:40;5.07;;;4.68;;
